Gilbert, Arizona
Current Conditions -  °F | °C
As of 8:47 PM on Tuesday 27 Jan 2015 (Local Time) from KCHD Reporting Station
Scattered Clouds Scattered Clouds  
Wind Chill: 64°   Ceiling: Unl
Heat Index: 64°   Visibility: 15mi
Dew Point: 52°   Wind: 5mph
Humidity: 64%   Direction: NA
Pressure: 30.15"   Gusts: NA
Location:  33.33°N, 111.78°W
Report Text: KCHD 280347Z VRB04KT 15SM SCT250 18/11 A3015 RMK LAST
Loading
Personal Weather Stations






























Interactive Weather Map New forecast layout! Learn more

10-Day Weather Forecast

Advertisements
Track Severe Weather on mobile